createdAt,value
2023-02-01T00:03:32.988Z,96577.00
2023-02-01T00:07:36.155Z,96577.00
2023-02-01T00:11:42.056Z,96573.00
2023-02-01T00:15:46.910Z,96575.00
2023-02-01T00:19:57.623Z,96579.00
2023-02-01T00:24:00.827Z,96579.00
2023-02-01T00:28:05.345Z,96585.00
2023-02-01T00:32:14.844Z,96584.00
2023-02-01T00:36:18.736Z,96575.00
2023-02-01T00:40:22.219Z,96564.00
2023-02-01T00:44:25.438Z,96569.00
2023-02-01T00:48:30.569Z,96565.00
2023-02-01T00:52:36.879Z,96564.00
2023-02-01T00:56:42.243Z,96563.00
2023-02-01T01:00:48.589Z,96557.00
2023-02-01T01:04:53.233Z,96565.00
2023-02-01T01:09:00.196Z,96576.00
2023-02-01T01:13:03.205Z,96563.00
2023-02-01T01:17:06.611Z,96561.00
2023-02-01T01:21:14.671Z,96568.00
2023-02-01T01:25:17.886Z,96571.00
2023-02-01T01:29:21.362Z,96570.00
2023-02-01T01:33:24.398Z,96571.00
2023-02-01T01:37:28.799Z,96575.00
2023-02-01T01:41:33.799Z,96578.00
2023-02-01T01:45:37.222Z,96565.00
2023-02-01T01:49:40.497Z,96559.00
2023-02-01T01:53:50.745Z,96551.00
2023-02-01T01:58:02.129Z,96540.00
2023-02-01T02:02:07.634Z,96534.00
2023-02-01T02:06:17.836Z,96533.00
2023-02-01T02:10:45.339Z,96520.00
2023-02-01T02:14:48.794Z,96526.00
2023-02-01T02:19:10.943Z,96526.00
2023-02-01T02:23:49.612Z,96524.00
2023-02-01T02:28:06.187Z,96514.00
2023-02-01T02:32:26.358Z,96528.00
2023-02-01T02:36:44.314Z,96517.00
2023-02-01T02:40:52.650Z,96531.00
2023-02-01T02:45:19.867Z,96531.00
2023-02-01T02:49:33.625Z,96522.00
2023-02-01T02:54:04.379Z,96504.00
2023-02-01T02:58:32.236Z,96505.00
2023-02-01T03:02:55.961Z,96504.00
2023-02-01T03:06:59.592Z,96503.00
2023-02-01T03:11:06.641Z,96507.00
2023-02-01T03:15:15.409Z,96502.00
2023-02-01T03:19:26.236Z,96504.00
2023-02-01T03:23:35.448Z,96488.00
2023-02-01T03:27:53.387Z,96483.00
2023-02-01T03:31:58.785Z,96480.00
2023-02-01T03:36:10.798Z,96472.00
2023-02-01T03:40:23.329Z,96462.00
2023-02-01T03:44:33.267Z,96465.00
2023-02-01T03:48:40.697Z,96451.00
2023-02-01T03:52:49.213Z,96453.00
2023-02-01T03:56:54.166Z,96457.00
2023-02-01T04:01:01.417Z,96468.00
2023-02-01T04:05:07.285Z,96467.00
2023-02-01T04:09:10.647Z,96460.00
2023-02-01T04:13:14.364Z,96466.00
2023-02-01T04:17:19.627Z,96462.00
2023-02-01T04:21:22.639Z,96463.00
2023-02-01T04:25:25.950Z,96473.00
2023-02-01T04:29:29.023Z,96473.00
2023-02-01T04:33:37.867Z,96462.00
2023-02-01T04:37:47.673Z,96462.00
2023-02-01T04:41:55.394Z,96451.00
2023-02-01T04:46:02.714Z,96442.00
2023-02-01T04:50:15.556Z,96435.00
2023-02-01T04:54:18.852Z,96430.00
2023-02-01T04:58:22.135Z,96424.00
2023-02-01T05:02:25.791Z,96416.00
2023-02-01T05:06:32.890Z,96415.00
2023-02-01T05:10:37.703Z,96421.00
2023-02-01T05:14:43.886Z,96408.00
2023-02-01T05:18:54.378Z,96419.00
2023-02-01T05:22:58.816Z,96405.00
2023-02-01T05:27:01.857Z,96404.00
2023-02-01T05:31:12.076Z,96405.00
2023-02-01T05:35:15.176Z,96397.00
2023-02-01T05:39:21.671Z,96400.00
2023-02-01T05:43:27.084Z,96392.00
2023-02-01T05:47:31.816Z,96380.00
2023-02-01T05:51:37.384Z,96373.00
2023-02-01T05:55:44.352Z,96364.00
2023-02-01T05:59:49.675Z,96375.00
2023-02-01T06:03:52.763Z,96370.00
2023-02-01T06:07:56.149Z,96364.00
2023-02-01T06:12:05.569Z,96360.00
2023-02-01T06:16:12.736Z,96367.00
2023-02-01T06:20:21.986Z,96360.00
2023-02-01T06:24:25.232Z,96365.00
2023-02-01T06:28:30.051Z,96368.00
2023-02-01T06:32:33.538Z,96356.00
2023-02-01T06:36:39.023Z,96354.00
2023-02-01T06:40:43.220Z,96358.00
2023-02-01T06:44:47.680Z,96367.00
2023-02-01T06:48:55.079Z,96361.00
2023-02-01T06:52:58.173Z,96361.00
2023-02-01T06:57:01.280Z,96368.00
2023-02-01T07:01:10.033Z,96366.00
2023-02-01T07:05:13.509Z,96373.00
2023-02-01T07:09:17.128Z,96387.00
2023-02-01T07:13:20.189Z,96406.00
2023-02-01T07:17:25.964Z,96402.00
2023-02-01T07:21:29.616Z,96430.00
2023-02-01T07:25:35.523Z,96432.00
2023-02-01T07:29:38.622Z,96429.00
2023-02-01T07:33:45.141Z,96423.00
2023-02-01T07:37:51.208Z,96417.00
2023-02-01T07:41:59.539Z,96416.00
2023-02-01T07:46:03.478Z,96412.00
2023-02-01T07:50:12.584Z,96417.00
2023-02-01T07:54:16.818Z,96416.00
2023-02-01T07:58:21.098Z,96419.00
2023-02-01T08:02:24.323Z,96420.00
2023-02-01T08:06:30.783Z,96420.00
2023-02-01T08:10:34.476Z,96423.00
2023-02-01T08:14:42.095Z,96436.00
2023-02-01T08:18:48.378Z,96433.00
2023-02-01T08:22:55.836Z,96434.00
2023-02-01T08:27:01.866Z,96441.00
2023-02-01T08:31:10.912Z,96439.00
2023-02-01T08:35:14.215Z,96423.00
2023-02-01T08:39:21.428Z,96427.00
2023-02-01T08:43:24.556Z,96433.00
2023-02-01T08:47:27.588Z,96441.00
2023-02-01T08:51:30.654Z,96433.00
2023-02-01T08:55:36.826Z,96425.00
2023-02-01T08:59:44.520Z,96438.00
2023-02-01T09:03:48.099Z,96433.00
2023-02-01T09:07:54.487Z,96431.00
2023-02-01T09:11:59.781Z,96426.00
2023-02-01T09:16:03.057Z,96431.00
2023-02-01T09:20:10.253Z,96445.00
2023-02-01T09:24:15.587Z,96444.00
2023-02-01T09:28:20.247Z,96435.00
2023-02-01T09:32:27.234Z,96436.00
2023-02-01T09:36:32.841Z,96448.00
2023-02-01T09:40:39.422Z,96429.00
2023-02-01T09:45:03.455Z,96444.00
2023-02-01T09:49:14.718Z,96451.00
2023-02-01T09:53:23.540Z,96456.00
2023-02-01T09:57:31.938Z,96465.00
2023-02-01T10:01:38.315Z,96458.00
2023-02-01T10:06:14.175Z,96456.00
2023-02-01T10:10:29.751Z,96453.00
2023-02-01T10:14:54.565Z,96444.00
2023-02-01T10:19:18.297Z,96450.00
2023-02-01T10:23:38.303Z,96435.00
2023-02-01T10:27:47.603Z,96450.00
2023-02-01T10:31:50.926Z,96451.00
2023-02-01T10:35:58.694Z,96440.00
2023-02-01T10:40:04.450Z,96441.00
2023-02-01T10:44:14.736Z,96476.00
2023-02-01T10:48:21.445Z,96494.00
2023-02-01T10:52:35.864Z,96470.00
2023-02-01T10:56:40.943Z,96474.00
2023-02-01T11:00:57.925Z,96486.00
2023-02-01T11:05:09.385Z,96501.00
2023-02-01T11:09:29.540Z,96508.00
2023-02-01T11:13:37.075Z,96480.00
2023-02-01T11:17:44.395Z,96478.00
2023-02-01T11:21:52.905Z,96469.00
2023-02-01T11:26:03.820Z,96448.00
2023-02-01T11:30:17.126Z,96457.00
2023-02-01T11:34:26.890Z,96448.00
2023-02-01T11:38:32.529Z,96435.00
2023-02-01T11:42:57.058Z,96430.00
2023-02-01T11:47:30.918Z,96413.00
2023-02-01T11:51:45.183Z,96401.00
2023-02-01T11:55:58.169Z,96407.00
2023-02-01T12:00:33.534Z,96407.00
2023-02-01T12:05:03.627Z,96410.00
2023-02-01T12:09:19.126Z,96406.00
2023-02-01T12:13:44.151Z,96409.00
2023-02-01T12:18:24.097Z,96416.00
2023-02-01T12:22:36.993Z,96414.00
2023-02-01T12:27:10.666Z,96418.00
2023-02-01T12:31:28.636Z,96408.00
2023-02-01T12:35:48.274Z,96419.00
2023-02-01T12:40:02.697Z,96421.00
2023-02-01T12:44:10.419Z,96417.00
2023-02-01T12:48:28.570Z,96433.00
2023-02-01T12:52:39.852Z,96427.00
2023-02-01T12:56:47.522Z,96444.00
2023-02-01T13:00:58.267Z,96433.00
2023-02-01T13:05:06.783Z,96434.00
2023-02-01T13:09:21.658Z,96425.00
2023-02-01T13:13:33.065Z,96433.00
2023-02-01T13:17:36.642Z,96432.00
2023-02-01T13:21:44.421Z,96422.00
2023-02-01T13:25:50.674Z,96424.00
2023-02-01T13:29:58.871Z,96410.00
2023-02-01T13:34:35.027Z,96429.00
2023-02-01T13:39:01.735Z,96412.00
2023-02-01T13:43:12.627Z,96407.00
2023-02-01T13:47:25.739Z,96416.00
2023-02-01T13:51:44.775Z,96404.00
2023-02-01T13:55:49.366Z,96415.00
2023-02-01T14:00:11.044Z,96403.00
2023-02-01T14:04:49.213Z,96409.00
2023-02-01T14:09:28.475Z,96394.00
2023-02-01T14:13:34.432Z,96397.00
2023-02-01T14:17:40.074Z,96395.00
2023-02-01T14:21:52.703Z,96380.00
2023-02-01T14:26:16.355Z,96379.00
2023-02-01T14:30:23.973Z,96388.00
2023-02-01T14:34:44.136Z,96393.00
2023-02-01T14:38:51.892Z,96391.00
2023-02-01T14:42:58.574Z,96388.00
2023-02-01T14:47:33.040Z,96395.00
2023-02-01T14:51:37.887Z,96394.00
2023-02-01T14:55:44.263Z,96406.00
2023-02-01T14:59:50.092Z,96406.00
2023-02-01T15:03:58.766Z,96398.00
2023-02-01T15:08:16.503Z,96393.00
2023-02-01T15:12:32.840Z,96389.00
2023-02-01T15:16:50.874Z,96389.00
2023-02-01T15:21:25.588Z,96385.00
2023-02-01T15:25:30.762Z,96383.00
2023-02-01T15:29:36.351Z,96384.00
2023-02-01T15:33:39.493Z,96373.00
2023-02-01T15:37:42.620Z,96372.00
2023-02-01T15:41:49.961Z,96375.00
2023-02-01T15:45:56.591Z,96360.00
2023-02-01T15:50:02.041Z,96358.00
2023-02-01T15:54:10.782Z,96361.00
2023-02-01T15:58:27.301Z,96363.00
2023-02-01T16:02:40.050Z,96336.00
2023-02-01T16:06:52.070Z,96351.00
2023-02-01T16:11:04.292Z,96341.00
2023-02-01T16:15:10.012Z,96347.00
2023-02-01T16:19:13.233Z,96335.00
2023-02-01T16:23:16.317Z,96346.00
2023-02-01T16:27:19.566Z,96358.00
2023-02-01T16:31:28.728Z,96344.00
2023-02-01T16:35:37.597Z,96339.00
2023-02-01T16:39:40.594Z,96363.00
2023-02-01T16:43:46.010Z,96363.00
2023-02-01T16:47:53.152Z,96350.00
2023-02-01T16:52:00.189Z,96356.00
2023-02-01T16:56:14.885Z,96369.00
2023-02-01T17:00:25.071Z,96371.00
2023-02-01T17:04:30.273Z,96356.00
2023-02-01T17:08:35.650Z,96362.00
2023-02-01T17:12:39.987Z,96372.00
2023-02-01T17:16:47.682Z,96369.00
2023-02-01T17:20:53.905Z,96360.00
2023-02-01T17:25:00.196Z,96353.00
2023-02-01T17:29:04.838Z,96357.00
2023-02-01T17:33:22.796Z,96358.00
2023-02-01T17:37:30.571Z,96352.00
2023-02-01T17:41:34.265Z,96328.00
2023-02-01T17:45:42.144Z,96336.00
2023-02-01T17:49:46.960Z,96327.00
2023-02-01T17:53:51.477Z,96305.00
2023-02-01T17:57:57.458Z,96321.00
2023-02-01T18:02:03.283Z,96305.00
2023-02-01T18:06:18.150Z,96299.00
2023-02-01T18:10:22.820Z,96328.00
2023-02-01T18:14:25.873Z,96340.00
2023-02-01T18:18:31.373Z,96330.00
2023-02-01T18:22:37.460Z,96327.00
2023-02-01T18:26:42.255Z,96320.00
2023-02-01T18:30:48.389Z,96326.00
2023-02-01T18:34:53.590Z,96332.00
2023-02-01T18:39:00.563Z,96311.00
2023-02-01T18:43:05.176Z,96318.00
2023-02-01T18:47:10.771Z,96346.00
2023-02-01T18:51:17.702Z,96329.00
2023-02-01T18:55:20.861Z,96313.00
2023-02-01T18:59:25.274Z,96307.00
2023-02-01T19:03:31.544Z,96323.00
2023-02-01T19:07:37.431Z,96333.00
2023-02-01T19:11:41.638Z,96319.00
2023-02-01T19:15:54.275Z,96322.00
2023-02-01T19:19:58.709Z,96317.00
2023-02-01T19:24:04.262Z,96329.00
2023-02-01T19:28:09.390Z,96322.00
2023-02-01T19:32:16.451Z,96335.00
2023-02-01T19:36:19.498Z,96308.00
2023-02-01T19:40:23.813Z,96308.00
2023-02-01T19:44:31.013Z,96323.00
2023-02-01T19:48:39.504Z,96310.00
2023-02-01T19:52:42.480Z,96318.00
2023-02-01T19:56:45.755Z,96320.00
2023-02-01T20:00:54.711Z,96321.00
2023-02-01T20:05:02.926Z,96346.00
2023-02-01T20:09:06.544Z,96331.00
2023-02-01T20:13:11.831Z,96323.00
2023-02-01T20:17:18.034Z,96324.00
2023-02-01T20:21:25.854Z,96332.00
2023-02-01T20:25:28.889Z,96320.00
2023-02-01T20:29:34.592Z,96346.00
2023-02-01T20:33:40.938Z,96333.00
2023-02-01T20:37:49.080Z,96353.00
2023-02-01T20:41:52.199Z,96360.00
2023-02-01T20:45:58.279Z,96339.00
2023-02-01T20:50:01.339Z,96330.00
2023-02-01T20:54:08.407Z,96322.00
2023-02-01T20:58:11.462Z,96313.00
2023-02-01T21:02:15.035Z,96317.00
2023-02-01T21:06:20.257Z,96309.00
2023-02-01T21:10:24.870Z,96333.00
2023-02-01T21:14:31.083Z,96334.00
2023-02-01T21:18:34.457Z,96318.00
2023-02-01T21:22:41.293Z,96311.00
2023-02-01T21:26:50.032Z,96303.00
2023-02-01T21:30:57.262Z,96317.00
2023-02-01T21:35:02.509Z,96327.00
2023-02-01T21:39:07.812Z,96303.00
2023-02-01T21:43:14.199Z,96312.00
2023-02-01T21:47:19.070Z,96327.00
2023-02-01T21:51:24.229Z,96331.00
2023-02-01T21:55:28.091Z,96324.00
2023-02-01T21:59:37.651Z,96336.00
2023-02-01T22:03:42.263Z,96324.00
2023-02-01T22:07:47.150Z,96328.00
2023-02-01T22:11:50.886Z,96337.00
2023-02-01T22:15:56.640Z,96319.00
2023-02-01T22:20:00.915Z,96321.00
2023-02-01T22:24:07.601Z,96299.00
2023-02-01T22:28:31.153Z,96316.00
2023-02-01T22:32:38.055Z,96329.00
2023-02-01T22:36:41.513Z,96314.00
2023-02-01T22:40:44.827Z,96322.00
2023-02-01T22:44:47.817Z,96333.00
2023-02-01T22:48:52.924Z,96318.00
2023-02-01T22:52:58.581Z,96330.00
2023-02-01T22:57:02.170Z,96341.00
2023-02-01T23:01:09.618Z,96321.00
2023-02-01T23:05:15.120Z,96324.00
2023-02-01T23:09:23.560Z,96342.00
2023-02-01T23:13:26.682Z,96318.00
2023-02-01T23:17:33.170Z,96331.00
2023-02-01T23:21:41.608Z,96322.00
2023-02-01T23:25:52.757Z,96322.00
2023-02-01T23:29:55.797Z,96303.00
2023-02-01T23:34:03.719Z,96296.00
2023-02-01T23:38:12.844Z,96303.00
2023-02-01T23:42:16.266Z,96296.00
2023-02-01T23:46:19.532Z,96293.00
2023-02-01T23:50:25.003Z,96298.00
2023-02-01T23:54:36.783Z,96301.00
2023-02-01T23:58:41.660Z,96283.00
